Time;durP1;ratioP1;P1;durP2;ratioP2;P2;SDS_P1;SDS_P2;PMS_P1;PMS_P2;Temp;Humidity;BMP_temperature;BMP_pressure;BME280_temperature;BME280_humidity;BME280_pressure;Samples;Min_cycle;Max_cycle;Signal;HPM_P1;HPM_P2
2021/05/04 00:01:46;;;;;;;8.07;5.93;;;15.90;91.80;;;;;;5051249;28;20025;-79
2021/05/04 00:04:12;;;;;;;8.25;6.25;;;15.80;92.10;;;;;;5033287;28;20037;-80
2021/05/04 00:06:38;;;;;;;8.55;6.43;;;16.00;91.80;;;;;;5042701;28;20370;-82
2021/05/04 00:09:05;;;;;;;8.77;5.72;;;15.80;92.60;;;;;;5041875;28;20052;-81
2021/05/04 00:11:31;;;;;;;8.98;6.28;;;15.60;93.20;;;;;;5040533;28;20040;-80
2021/05/04 00:13:57;;;;;;;7.97;6.20;;;15.70;93.20;;;;;;5046210;28;20017;-80
2021/05/04 00:16:26;;;;;;;12.07;6.00;;;15.70;93.50;;;;;;5044254;28;20480;-81
2021/05/04 00:18:51;;;;;;;10.85;6.68;;;15.70;93.30;;;;;;5044609;28;20013;-79
2021/05/04 00:21:17;;;;;;;9.50;6.43;;;15.50;94.10;;;;;;5035681;28;20087;-81
2021/05/04 00:23:43;;;;;;;7.50;6.00;;;15.60;93.90;;;;;;5017339;28;20550;-83
2021/05/04 00:26:14;;;;;;;8.07;5.60;;;15.40;94.30;;;;;;5038804;28;20523;-81
2021/05/04 00:28:40;;;;;;;8.32;6.03;;;15.40;94.30;;;;;;5023644;28;20017;-81
2021/05/04 00:31:05;;;;;;;8.38;6.03;;;15.50;94.30;;;;;;5048022;28;20394;-82
2021/05/04 00:33:31;;;;;;;7.88;6.10;;;15.50;94.50;;;;;;5043461;28;20154;-79
2021/05/04 00:35:57;;;;;;;8.30;5.93;;;15.50;94.50;;;;;;5044766;28;20052;-83
2021/05/04 00:38:24;;;;;;;9.23;6.05;;;15.50;94.60;;;;;;5042274;28;20025;-84
2021/05/04 00:40:50;;;;;;;7.55;5.90;;;15.40;94.90;;;;;;5050365;28;20032;-82
2021/05/04 00:43:16;;;;;;;8.65;6.25;;;15.40;94.80;;;;;;5054998;28;20384;-81
2021/05/04 00:45:42;;;;;;;8.27;6.07;;;15.40;94.90;;;;;;5054645;28;20082;-81
2021/05/04 00:48:09;;;;;;;11.23;6.88;;;15.20;95.40;;;;;;5055088;28;20091;-79
2021/05/04 00:50:34;;;;;;;7.93;6.18;;;15.10;95.90;;;;;;5054732;28;20021;-83
2021/05/04 00:53:01;;;;;;;8.23;6.15;;;15.20;96.00;;;;;;5054892;28;20032;-80
2021/05/04 00:55:27;;;;;;;7.75;6.28;;;15.30;95.80;;;;;;5054551;28;20021;-83
2021/05/04 00:57:55;;;;;;;7.43;6.05;;;15.30;95.80;;;;;;5036772;28;20171;-82
2021/05/04 01:07:06;;;;;;;8.68;6.35;;;15.10;96.40;;;;;;5012414;28;20088;-84
2021/05/04 01:12:37;;;;;;;7.80;6.03;;;15.10;96.70;;;;;;5012288;28;20092;-81
2021/05/04 01:15:21;;;;;;;7.85;6.28;;;15.10;96.60;;;;;;4995723;28;20385;-81
2021/05/04 01:18:04;;;;;;;8.80;6.32;;;15.00;96.70;;;;;;4995899;28;20045;-82
2021/05/04 01:20:31;;;;;;;8.35;6.70;;;15.00;96.60;;;;;;5012076;28;20034;-81
2021/05/04 01:22:56;;;;;;;8.95;5.97;;;15.00;96.50;;;;;;5011249;28;20113;-82
2021/05/04 01:25:22;;;;;;;9.50;6.75;;;15.10;96.80;;;;;;4995710;28;20144;-80
2021/05/04 01:27:48;;;;;;;8.45;5.80;;;15.00;96.80;;;;;;5011765;28;20056;-80
2021/05/04 01:30:14;;;;;;;8.02;5.80;;;15.00;96.80;;;;;;5012617;28;20034;-81
2021/05/04 01:32:40;;;;;;;10.23;6.25;;;15.00;97.10;;;;;;5012113;28;20069;-80
2021/05/04 01:35:08;;;;;;;8.90;6.65;;;14.90;97.20;;;;;;4995546;28;20033;-80
2021/05/04 01:37:34;;;;;;;9.25;6.40;;;14.80;97.20;;;;;;5028430;28;20063;-81
2021/05/04 01:40:00;;;;;;;9.75;6.22;;;15.00;97.30;;;;;;5054184;28;20035;-82
2021/05/04 01:42:26;;;;;;;10.88;6.20;;;15.00;96.90;;;;;;5053655;28;20025;-81
2021/05/04 01:44:52;;;;;;;9.50;6.65;;;14.80;97.30;;;;;;5035717;28;20135;-82
2021/05/04 01:47:17;;;;;;;8.05;6.30;;;14.90;97.40;;;;;;5053866;28;20024;-81
2021/05/04 01:49:43;;;;;;;9.02;6.60;;;14.80;97.50;;;;;;5053814;28;20017;-80
2021/05/04 01:52:11;;;;;;;7.55;5.45;;;15.00;97.40;;;;;;5035320;28;20112;-81
2021/05/04 01:54:37;;;;;;;8.27;5.97;;;15.00;97.20;;;;;;5053587;28;20029;-78
2021/05/04 01:57:03;;;;;;;9.15;6.50;;;15.10;96.90;;;;;;5053204;28;20064;-79
2021/05/04 01:59:29;;;;;;;9.57;5.78;;;15.00;96.80;;;;;;5035248;28;20021;-81
2021/05/04 02:01:57;;;;;;;8.25;5.97;;;14.90;96.60;;;;;;5035576;28;20060;-80
2021/05/04 02:04:24;;;;;;;9.40;5.85;;;14.80;97.20;;;;;;5053399;28;20036;-81
2021/05/04 02:06:51;;;;;;;9.30;5.97;;;15.10;96.80;;;;;;5036252;28;20599;-82
2021/05/04 02:09:16;;;;;;;8.63;6.20;;;15.00;96.70;;;;;;5033453;28;20164;-83
2021/05/04 02:11:42;;;;;;;9.35;6.20;;;14.90;97.10;;;;;;5033261;28;20097;-80
2021/05/04 02:14:08;;;;;;;8.30;6.47;;;14.70;97.00;;;;;;5032818;28;20052;-79
2021/05/04 02:16:35;;;;;;;7.75;5.40;;;14.70;97.40;;;;;;5015423;28;20124;-83
2021/05/04 02:19:01;;;;;;;9.23;6.00;;;14.70;97.20;;;;;;5033084;28;20104;-83
2021/05/04 02:21:27;;;;;;;10.43;6.18;;;14.70;97.30;;;;;;5033474;28;20021;-82
2021/05/04 02:23:53;;;;;;;7.63;5.75;;;14.90;96.90;;;;;;5032845;28;20041;-83
2021/05/04 02:26:19;;;;;;;9.65;5.72;;;14.70;97.00;;;;;;5033079;28;20021;-82
2021/05/04 02:28:45;;;;;;;7.20;5.63;;;14.70;97.10;;;;;;5033064;28;20052;-81
2021/05/04 02:31:12;;;;;;;7.50;5.55;;;14.70;97.20;;;;;;5015342;28;20390;-80
2021/05/04 02:33:39;;;;;;;7.80;5.78;;;14.70;97.00;;;;;;5015268;28;20172;-81
2021/05/04 02:36:06;;;;;;;8.27;5.70;;;14.70;97.20;;;;;;5015144;28;20558;-82
2021/05/04 02:38:33;;;;;;;8.60;5.70;;;15.00;96.90;;;;;;5014531;28;20542;-81
2021/05/04 02:40:59;;;;;;;7.07;5.35;;;15.20;96.60;;;;;;5032938;28;20025;-80
2021/05/04 02:43:25;;;;;;;7.90;5.93;;;15.40;96.10;;;;;;5032713;28;20032;-80
2021/05/04 02:45:52;;;;;;;12.23;7.03;;;15.50;96.40;;;;;;5032621;28;20404;-79
2021/05/04 02:48:18;;;;;;;10.30;7.00;;;15.50;97.80;;;;;;5032788;28;20028;-80
2021/05/04 02:50:44;;;;;;;9.75;7.30;;;15.40;98.80;;;;;;5032787;28;20115;-80
2021/05/04 02:53:10;;;;;;;12.27;8.02;;;15.50;99.20;;;;;;5032290;28;20030;-79
2021/05/04 02:55:36;;;;;;;12.75;8.30;;;15.50;99.40;;;;;;5032580;28;20032;-79
2021/05/04 02:58:03;;;;;;;10.75;7.57;;;15.40;99.70;;;;;;5014465;28;20033;-78
2021/05/04 03:00:28;;;;;;;15.30;8.80;;;15.30;99.90;;;;;;5032430;28;20053;-82
2021/05/04 03:02:54;;;;;;;11.40;7.65;;;15.10;99.90;;;;;;5032476;28;20144;-82
2021/05/04 03:05:20;;;;;;;10.55;7.53;;;15.20;99.90;;;;;;5017564;28;20060;-82
2021/05/04 03:07:46;;;;;;;10.73;6.95;;;15.10;99.90;;;;;;5052132;28;20090;-80
2021/05/04 03:10:12;;;;;;;10.25;7.20;;;15.20;99.90;;;;;;5052706;28;20037;-80
2021/05/04 03:12:38;;;;;;;11.35;6.88;;;15.30;99.90;;;;;;5035014;28;20029;-82
2021/05/04 03:15:05;;;;;;;11.50;7.32;;;15.30;99.90;;;;;;5052437;28;20031;-80
2021/05/04 03:17:31;;;;;;;12.98;7.70;;;15.30;99.90;;;;;;5052155;28;20025;-81
2021/05/04 03:19:57;;;;;;;12.20;6.80;;;15.20;99.90;;;;;;5052150;28;20024;-81
2021/05/04 03:22:23;;;;;;;11.25;7.22;;;15.20;99.90;;;;;;5051836;28;20021;-82
2021/05/04 03:24:48;;;;;;;11.82;7.68;;;15.10;99.90;;;;;;5052232;28;20044;-80
2021/05/04 03:27:15;;;;;;;11.38;6.90;;;15.10;99.90;;;;;;5052106;28;20033;-82
2021/05/04 03:29:41;;;;;;;8.40;6.20;;;15.10;99.90;;;;;;5051967;28;20099;-80
2021/05/04 03:32:07;;;;;;;10.55;7.10;;;15.20;99.20;;;;;;5051843;28;20415;-81
2021/05/04 03:34:32;;;;;;;8.60;6.80;;;15.20;99.70;;;;;;5051759;28;20550;-80
2021/05/04 03:36:58;;;;;;;11.27;7.45;;;15.20;99.90;;;;;;5033956;28;20017;-78
2021/05/04 03:39:24;;;;;;;11.23;8.52;;;15.10;99.90;;;;;;5051458;28;20041;-81
2021/05/04 03:41:50;;;;;;;12.95;7.38;;;15.20;99.90;;;;;;5017557;28;20021;-81
2021/05/04 03:44:15;;;;;;;9.55;6.75;;;15.30;99.90;;;;;;5051655;28;20028;-79
2021/05/04 03:46:43;;;;;;;7.75;5.80;;;15.30;99.90;;;;;;5051159;28;20017;-80
2021/05/04 03:49:08;;;;;;;9.52;6.78;;;14.80;99.20;;;;;;5051413;28;20033;-81
2021/05/04 03:51:34;;;;;;;8.88;6.38;;;14.60;99.90;;;;;;5051484;28;20108;-78
2021/05/04 03:54:00;;;;;;;10.55;6.25;;;14.30;99.90;;;;;;5051601;28;20041;-81
2021/05/04 03:56:26;;;;;;;9.32;6.30;;;14.30;99.90;;;;;;5051556;28;20079;-82
2021/05/04 03:58:51;;;;;;;9.90;6.45;;;14.30;99.90;;;;;;5033837;28;20477;-82
2021/05/04 04:01:17;;;;;;;8.93;6.25;;;14.20;99.90;;;;;;5051821;28;20516;-80
2021/05/04 04:03:43;;;;;;;8.30;5.72;;;14.00;99.90;;;;;;5033000;28;20033;-79
2021/05/04 04:06:09;;;;;;;9.38;5.93;;;13.90;99.90;;;;;;5043134;28;20112;-80
2021/05/04 04:08:34;;;;;;;10.73;6.38;;;13.80;99.90;;;;;;5031500;28;20030;-81
2021/05/04 04:11:00;;;;;;;8.02;6.03;;;13.60;99.90;;;;;;5013604;28;20240;-79
2021/05/04 04:13:33;;;;;;;9.25;5.97;;;13.90;99.90;;;;;;5013649;28;20026;-81
2021/05/04 04:16:22;;;;;;;9.63;6.25;;;13.80;99.90;;;;;;5031507;28;20454;-80
2021/05/04 04:18:48;;;;;;;8.75;6.25;;;14.10;99.90;;;;;;5031310;28;20053;-82
2021/05/04 04:21:17;;;;;;;8.05;6.03;;;14.50;99.30;;;;;;5031346;28;20049;-80
2021/05/04 04:23:43;;;;;;;11.48;5.75;;;14.00;99.90;;;;;;5030777;28;20033;-80
2021/05/04 04:26:12;;;;;;;7.32;6.03;;;14.20;99.80;;;;;;5031391;28;20033;-82
2021/05/04 04:28:37;;;;;;;9.68;6.10;;;14.00;99.90;;;;;;5013454;28;20397;-82
2021/05/04 04:31:03;;;;;;;11.00;6.43;;;14.20;99.90;;;;;;5031211;28;20024;-81
2021/05/04 04:33:29;;;;;;;8.23;5.85;;;14.50;99.80;;;;;;5013777;28;20025;-81
2021/05/04 04:35:55;;;;;;;9.55;5.68;;;14.40;99.40;;;;;;5013462;28;20543;-82
2021/05/04 04:38:21;;;;;;;7.47;5.30;;;14.50;99.40;;;;;;5031126;28;20091;-82
2021/05/04 04:40:48;;;;;;;8.98;6.03;;;14.50;98.80;;;;;;5031321;28;20760;-81
2021/05/04 04:43:14;;;;;;;10.02;6.03;;;14.70;98.20;;;;;;5030745;28;20057;-78
2021/05/04 04:45:39;;;;;;;9.60;5.40;;;14.70;97.10;;;;;;5031077;28;20025;-78
2021/05/04 04:48:05;;;;;;;10.15;6.55;;;14.90;97.10;;;;;;5030939;28;20068;-80
2021/05/04 04:50:32;;;;;;;49.70;30.80;;;15.00;96.80;;;;;;5013578;28;20022;-86
2021/05/04 04:52:59;;;;;;;74.95;45.60;;;15.30;98.60;;;;;;5013822;28;20049;-86
2021/05/04 04:56:04;;;;;;;23.20;16.30;;;15.60;97.10;;;;;;5030813;28;20416;-88
2021/05/04 04:58:32;;;;;;;10.93;6.90;;;15.50;97.00;;;;;;5014098;28;20049;-79
2021/05/04 05:00:58;;;;;;;11.50;6.65;;;15.40;96.50;;;;;;5017080;28;20492;-78
2021/05/04 05:03:26;;;;;;;14.43;5.65;;;15.40;96.20;;;;;;5034216;28;20556;-81
2021/05/04 05:05:52;;;;;;;9.50;5.20;;;15.00;95.70;;;;;;5020465;28;20073;-80
2021/05/04 05:08:18;;;;;;;11.45;5.30;;;14.90;96.40;;;;;;5054630;28;20028;-79
2021/05/04 05:10:44;;;;;;;8.20;5.15;;;15.00;96.40;;;;;;5054432;28;20086;-78
2021/05/04 05:13:10;;;;;;;10.15;5.50;;;15.30;96.00;;;;;;5054319;28;20044;-80
2021/05/04 05:15:39;;;;;;;13.48;6.40;;;15.70;95.40;;;;;;5054325;28;20032;-80
2021/05/04 05:18:06;;;;;;;8.77;5.67;;;15.90;95.00;;;;;;5054155;28;20021;-79
2021/05/04 05:20:35;;;;;;;9.43;5.60;;;15.80;94.70;;;;;;5053778;28;20047;-81
2021/05/04 05:23:01;;;;;;;8.27;4.80;;;15.90;93.90;;;;;;5054130;28;20025;-81
2021/05/04 05:25:28;;;;;;;6.95;4.78;;;15.50;93.90;;;;;;5035950;28;20048;-81
2021/05/04 05:27:54;;;;;;;6.43;4.55;;;15.70;94.50;;;;;;5036500;28;20116;-82
2021/05/04 05:30:20;;;;;;;7.32;5.15;;;15.70;94.10;;;;;;5035910;28;20082;-81
2021/05/04 05:32:51;;;;;;;7.40;4.70;;;16.00;93.70;;;;;;5054391;28;20484;-83
2021/05/04 05:35:17;;;;;;;7.05;4.63;;;16.00;93.20;;;;;;5035630;28;20483;-83
2021/05/04 05:37:42;;;;;;;7.88;5.65;;;15.60;94.00;;;;;;5054460;28;20052;-81
2021/05/04 05:40:09;;;;;;;8.40;5.80;;;15.70;94.10;;;;;;5035937;28;20044;-78
2021/05/04 05:42:35;;;;;;;17.77;11.75;;;16.10;93.10;;;;;;5035597;28;20036;-83
2021/05/04 05:45:01;;;;;;;39.97;23.83;;;16.20;92.60;;;;;;5053835;28;20045;-81
2021/05/04 05:47:26;;;;;;;15.55;7.38;;;16.30;92.20;;;;;;5053991;28;20495;-81
2021/05/04 05:49:52;;;;;;;14.43;6.07;;;16.10;91.90;;;;;;5035729;28;20032;-81
2021/05/04 05:52:18;;;;;;;11.63;5.80;;;16.00;92.00;;;;;;5035620;28;20405;-82
2021/05/04 05:54:44;;;;;;;10.32;5.97;;;16.40;93.70;;;;;;5036093;28;20119;-83
2021/05/04 05:57:09;;;;;;;9.38;5.60;;;16.60;93.00;;;;;;5053725;28;20645;-81
2021/05/04 05:59:35;;;;;;;10.75;6.13;;;16.60;94.10;;;;;;5053507;28;20496;-80
2021/05/04 06:02:01;;;;;;;10.73;6.00;;;16.60;94.70;;;;;;5019587;28;20017;-79
2021/05/04 06:04:27;;;;;;;10.60;6.53;;;16.60;95.50;;;;;;5014618;28;20033;-80
2021/05/04 06:06:52;;;;;;;10.88;6.60;;;16.60;96.90;;;;;;5034869;28;20079;-79
2021/05/04 06:09:18;;;;;;;8.98;6.25;;;16.50;96.60;;;;;;5052259;28;20040;-79
2021/05/04 06:11:44;;;;;;;10.32;7.05;;;16.50;97.00;;;;;;5052339;28;20027;-81
2021/05/04 06:14:10;;;;;;;10.00;6.80;;;16.60;97.80;;;;;;5052826;28;20436;-83
2021/05/04 06:16:35;;;;;;;10.65;5.30;;;16.70;98.70;;;;;;5034808;28;20021;-81
2021/05/04 06:19:01;;;;;;;8.25;5.40;;;16.30;93.60;;;;;;5053012;28;20071;-81
2021/05/04 06:21:27;;;;;;;6.88;5.30;;;16.30;95.00;;;;;;5052469;28;20025;-80
2021/05/04 06:23:53;;;;;;;7.95;5.20;;;16.60;94.40;;;;;;5052766;28;20068;-80
2021/05/04 06:26:19;;;;;;;7.82;5.22;;;16.80;94.20;;;;;;5052814;28;20421;-82
2021/05/04 06:28:49;;;;;;;8.88;4.88;;;16.70;91.30;;;;;;5052781;28;20512;-81
2021/05/04 06:31:21;;;;;;;6.80;4.45;;;16.80;93.00;;;;;;5052425;28;20031;-80
2021/05/04 06:33:48;;;;;;;10.43;4.95;;;16.70;90.70;;;;;;5052845;28;20035;-80
2021/05/04 06:36:14;;;;;;;6.93;4.50;;;16.40;91.20;;;;;;5052522;28;20048;-83
2021/05/04 06:38:40;;;;;;;9.50;4.63;;;16.40;92.40;;;;;;5035009;28;20037;-82
2021/05/04 06:41:12;;;;;;;10.05;5.25;;;16.70;92.60;;;;;;5052385;28;20017;-86
2021/05/04 06:43:38;;;;;;;7.72;4.95;;;17.20;93.30;;;;;;5053721;28;20102;-83
2021/05/04 06:46:05;;;;;;;9.43;4.90;;;16.90;89.30;;;;;;5052543;28;20064;-86
2021/05/04 06:48:31;;;;;;;6.53;4.68;;;16.90;90.10;;;;;;5052486;28;20025;-82
2021/05/04 06:50:57;;;;;;;11.43;4.82;;;17.10;90.70;;;;;;5052325;28;20029;-82
2021/05/04 06:53:25;;;;;;;9.57;4.75;;;17.20;86.70;;;;;;5034545;28;20047;-84
2021/05/04 06:55:52;;;;;;;6.40;4.50;;;17.20;89.80;;;;;;5052267;28;20446;-83
2021/05/04 06:58:17;;;;;;;6.88;4.60;;;17.30;89.20;;;;;;5034457;28;20037;-80
2021/05/04 07:00:43;;;;;;;6.75;4.20;;;17.50;90.00;;;;;;5051884;28;20025;-83
2021/05/04 07:03:09;;;;;;;6.53;4.25;;;17.40;85.00;;;;;;5045180;28;20082;-85
2021/05/04 07:05:38;;;;;;;6.72;4.35;;;17.10;87.70;;;;;;5038954;28;20029;-86
2021/05/04 07:08:04;;;;;;;10.05;4.50;;;16.80;86.50;;;;;;5014297;28;20017;-85
2021/05/04 07:10:30;;;;;;;7.25;4.70;;;16.80;86.70;;;;;;5023262;28;20133;-87
2021/05/04 07:12:56;;;;;;;6.93;4.75;;;17.10;89.00;;;;;;5025040;28;20485;-85
2021/05/04 07:15:22;;;;;;;8.98;5.00;;;17.30;88.10;;;;;;5033074;28;20562;-82
2021/05/04 07:17:48;;;;;;;10.45;5.45;;;17.30;88.10;;;;;;5039781;28;20094;-84
2021/05/04 07:20:19;;;;;;;7.95;4.60;;;17.50;87.10;;;;;;5031967;28;20018;-86
2021/05/04 07:22:46;;;;;;;9.10;4.80;;;17.40;88.60;;;;;;5013368;28;20393;-88
2021/05/04 07:25:12;;;;;;;7.88;4.50;;;17.50;85.80;;;;;;5033635;28;20041;-85
2021/05/04 07:27:38;;;;;;;11.75;4.88;;;17.70;87.80;;;;;;5014798;28;20027;-84
2021/05/04 07:30:04;;;;;;;11.27;4.68;;;17.50;84.60;;;;;;5016463;28;20029;-85
2021/05/04 07:32:30;;;;;;;7.03;4.30;;;17.50;85.40;;;;;;5017665;28;20056;-83
2021/05/04 07:34:56;;;;;;;11.45;4.45;;;17.50;84.30;;;;;;5032632;28;20061;-85
2021/05/04 07:37:22;;;;;;;9.07;4.68;;;17.50;83.70;;;;;;5038310;28;20037;-80
2021/05/04 07:39:47;;;;;;;8.13;4.78;;;17.60;85.10;;;;;;5035692;28;20037;-83
2021/05/04 07:42:13;;;;;;;7.50;4.75;;;17.80;84.70;;;;;;5031926;28;20033;-86
2021/05/04 07:44:40;;;;;;;6.50;4.40;;;18.00;83.40;;;;;;5032060;28;20057;-84
2021/05/04 07:47:06;;;;;;;7.30;4.30;;;18.10;83.10;;;;;;5013989;28;20026;-86
2021/05/04 07:49:41;;;;;;;7.15;4.35;;;17.90;81.70;;;;;;5031786;28;20108;-82
2021/05/04 07:52:07;;;;;;;7.65;4.32;;;18.00;83.70;;;;;;5013645;28;20111;-81
2021/05/04 07:54:33;;;;;;;6.28;4.20;;;17.60;81.20;;;;;;5014710;28;20469;-85
2021/05/04 07:56:59;;;;;;;7.60;4.13;;;17.60;83.40;;;;;;5031113;28;20383;-83
2021/05/04 07:59:24;;;;;;;7.50;4.70;;;17.50;82.40;;;;;;5013505;28;20036;-85
2021/05/04 08:01:50;;;;;;;8.60;5.03;;;17.70;82.80;;;;;;5031136;28;20108;-84
2021/05/04 08:04:16;;;;;;;8.65;4.47;;;18.00;82.60;;;;;;5030733;28;20038;-80
2021/05/04 08:06:42;;;;;;;8.30;4.00;;;18.00;81.70;;;;;;5046961;28;20028;-83
2021/05/04 08:09:08;;;;;;;8.07;4.47;;;18.00;81.80;;;;;;5051511;28;20112;-83
2021/05/04 08:11:35;;;;;;;9.30;3.80;;;18.00;80.70;;;;;;5051349;28;20025;-85
2021/05/04 08:14:02;;;;;;;6.95;4.13;;;18.00;80.60;;;;;;5051161;28;20096;-83
2021/05/04 08:16:30;;;;;;;7.68;4.88;;;18.20;81.40;;;;;;5050791;28;20358;-84
2021/05/04 08:18:56;;;;;;;11.35;4.80;;;18.40;80.40;;;;;;5051117;28;20025;-83
2021/05/04 08:21:23;;;;;;;7.68;4.60;;;18.40;80.20;;;;;;5051074;28;20036;-87
2021/05/04 08:23:48;;;;;;;8.85;4.20;;;18.60;81.00;;;;;;5033088;28;20037;-82
2021/05/04 08:26:15;;;;;;;10.48;5.15;;;18.80;80.00;;;;;;5033187;28;20055;-83
2021/05/04 08:28:40;;;;;;;7.95;4.70;;;19.00;78.80;;;;;;5050625;28;20108;-80
2021/05/04 08:31:07;;;;;;;10.00;4.30;;;19.00;79.60;;;;;;5032844;28;20112;-80
2021/05/04 08:33:33;;;;;;;7.43;5.00;;;19.00;78.20;;;;;;5053975;28;20383;-79
2021/05/04 08:36:03;;;;;;;11.18;4.60;;;19.50;82.70;;;;;;5055215;28;20573;-80
2021/05/04 08:38:29;;;;;;;10.38;4.70;;;19.90;80.40;;;;;;5054562;28;20126;-79
2021/05/04 08:40:55;;;;;;;9.25;4.82;;;20.10;79.80;;;;;;5054709;28;20068;-79
2021/05/04 08:43:22;;;;;;;33.90;5.32;;;20.20;79.00;;;;;;5054274;28;20100;-79
2021/05/04 08:45:56;;;;;;;8.25;4.97;;;20.30;76.90;;;;;;5054997;28;20118;-79
2021/05/04 08:51:47;;;;;;;7.65;5.03;;;20.20;76.00;;;;;;5000246;28;20029;-79
2021/05/04 08:54:14;;;;;;;7.70;4.35;;;20.30;72.90;;;;;;5036523;28;20078;-81
2021/05/04 08:56:41;;;;;;;8.65;4.35;;;20.70;74.10;;;;;;5053995;28;20126;-80
2021/05/04 08:59:14;;;;;;;8.48;4.38;;;20.60;72.20;;;;;;5054512;28;20020;-83
2021/05/04 09:01:40;;;;;;;6.88;3.88;;;20.90;70.10;;;;;;5054232;28;20028;-81
2021/05/04 09:04:33;;;;;;;9.45;4.00;;;21.00;70.10;;;;;;5054365;28;20029;-84
2021/05/04 09:22:00;;;;;;;6.90;3.97;;;21.90;66.50;;;;;;5034726;28;20079;-83
2021/05/04 09:24:40;;;;;;;9.32;4.25;;;22.10;65.00;;;;;;5017967;28;20036;-87
2021/05/04 09:27:19;;;;;;;7.93;3.97;;;22.50;65.80;;;;;;5016681;28;20029;-86
2021/05/04 09:29:54;;;;;;;8.05;4.63;;;22.80;63.50;;;;;;5016622;28;20033;-84
2021/05/04 09:32:27;;;;;;;7.57;4.45;;;22.80;63.40;;;;;;5016787;28;20172;-82
2021/05/04 09:35:04;;;;;;;14.85;4.82;;;22.70;62.70;;;;;;5016501;28;20461;-85
2021/05/04 09:37:40;;;;;;;8.35;4.22;;;22.60;64.50;;;;;;5033779;28;20061;-84
2021/05/04 09:40:26;;;;;;;35.08;6.25;;;22.80;63.70;;;;;;5023764;28;20048;-83
2021/05/04 09:43:13;;;;;;;9.27;4.35;;;23.00;62.40;;;;;;5053919;28;20029;-82
2021/05/04 09:45:50;;;;;;;18.10;5.32;;;22.70;61.90;;;;;;5053625;28;20040;-83
2021/05/04 09:48:24;;;;;;;12.32;5.10;;;22.50;62.70;;;;;;5053243;28;20025;-84
2021/05/04 09:51:05;;;;;;;10.20;4.30;;;22.70;61.90;;;;;;5053789;28;20029;-82
2021/05/04 09:54:10;;;;;;;10.55;4.07;;;22.50;61.00;;;;;;5053448;28;20794;-84
2021/05/04 09:56:37;;;;;;;8.70;4.32;;;22.80;61.40;;;;;;4952348;29;20431;-83
2021/05/04 09:59:13;;;;;;;13.20;4.53;;;23.30;62.80;;;;;;4937453;29;20030;-87
2021/05/04 10:01:42;;;;;;;10.02;4.35;;;22.90;62.30;;;;;;4952825;29;20122;-82
2021/05/04 10:04:16;;;;;;;9.02;4.78;;;22.80;63.60;;;;;;4953331;29;20411;-85
2021/05/04 10:07:36;;;;;;;11.90;4.80;;;23.30;62.70;;;;;;4961103;28;20037;-87
2021/05/04 10:10:06;;;;;;;;;;;23.30;61.40;;;;;;4925095;29;20053;-86
2021/05/04 10:12:42;;;;;;;9.07;4.50;;;23.20;62.10;;;;;;4927114;29;20294;-83
2021/05/04 10:15:11;;;;;;;11.65;4.50;;;22.90;60.60;;;;;;5020400;28;20080;-82
2021/05/04 10:17:42;;;;;;;7.53;4.00;;;23.20;60.90;;;;;;5042270;28;20025;-82
2021/05/04 10:20:17;;;;;;;8.35;4.47;;;23.60;61.10;;;;;;5023445;28;20033;-83
2021/05/04 10:22:49;;;;;;;7.82;4.60;;;23.90;61.30;;;;;;5042214;28;20043;-83
2021/05/04 10:25:19;;;;;;;7.43;4.22;;;23.60;59.70;;;;;;5023228;28;20069;-81
2021/05/04 10:28:00;;;;;;;6.63;3.92;;;23.60;60.70;;;;;;5050061;28;20083;-83
2021/05/04 10:30:27;;;;;;;8.00;3.95;;;23.50;58.80;;;;;;4995732;28;20116;-83
2021/05/04 10:32:56;;;;;;;7.38;4.05;;;23.40;58.90;;;;;;5028997;28;20113;-85
2021/05/04 10:35:41;;;;;;;8.00;4.13;;;23.50;58.60;;;;;;5025404;28;20021;-83
2021/05/04 10:38:15;;;;;;;6.75;3.92;;;23.70;58.60;;;;;;5022205;28;20052;-83
2021/05/04 10:40:44;;;;;;;5.82;3.47;;;23.50;59.90;;;;;;5036937;28;20262;-78
2021/05/04 10:43:22;;;;;;;7.00;3.88;;;24.10;58.10;;;;;;5023198;28;20037;-82
2021/05/04 10:45:55;;;;;;;6.72;3.38;;;24.60;56.30;;;;;;5032082;28;20477;-82
2021/05/04 10:48:42;;;;;;;9.73;3.92;;;24.80;56.70;;;;;;5032923;28;20069;-85
2021/05/04 10:51:12;;;;;;;7.32;3.80;;;24.60;56.70;;;;;;5036951;28;20034;-80
2021/05/04 10:54:01;;;;;;;6.85;4.05;;;23.90;57.60;;;;;;5023505;28;20026;-82
2021/05/04 10:56:34;;;;;;;10.35;3.85;;;24.10;57.80;;;;;;4994837;28;20389;-84
2021/05/04 10:59:01;;;;;;;11.30;3.90;;;24.50;56.50;;;;;;5040222;28;20441;-83
2021/05/04 11:01:27;;;;;;;7.32;3.58;;;24.70;56.00;;;;;;5039255;28;20041;-84
2021/05/04 11:03:55;;;;;;;6.80;3.30;;;25.00;55.10;;;;;;5041969;28;20032;-82
2021/05/04 11:06:32;;;;;;;7.93;3.75;;;24.80;54.30;;;;;;5024196;28;20039;-80
2021/05/04 11:09:04;;;;;;;6.22;3.75;;;24.30;54.50;;;;;;5048114;28;20035;-84
2021/05/04 11:11:43;;;;;;;8.05;3.47;;;24.20;55.70;;;;;;5035611;28;20432;-83
2021/05/04 11:14:15;;;;;;;6.05;3.28;;;24.30;55.40;;;;;;5038310;28;20390;-83
2021/05/04 11:16:53;;;;;;;7.68;3.65;;;23.80;56.40;;;;;;5030243;28;20021;-82
2021/05/04 11:19:39;;;;;;;7.80;3.75;;;23.90;56.30;;;;;;5042524;28;20701;-84
2021/05/04 11:22:14;;;;;;;9.38;3.28;;;24.20;56.40;;;;;;5037484;28;20021;-84
2021/05/04 11:24:49;;;;;;;6.05;3.28;;;24.50;56.30;;;;;;5023838;28;20477;-85
2021/05/04 11:30:46;;;;;;;8.00;3.47;;;24.70;55.20;;;;;;5069931;23;20052;-83
2021/05/04 11:33:32;;;;;;;6.55;3.47;;;24.10;55.70;;;;;;5037372;28;20018;-82
2021/05/04 11:36:02;;;;;;;8.68;4.28;;;23.80;56.20;;;;;;4999594;28;20421;-81
2021/05/04 11:38:42;;;;;;;8.75;3.65;;;23.70;57.50;;;;;;5291380;22;20045;-89
2021/05/04 11:41:11;;;;;;;7.93;3.42;;;24.10;57.30;;;;;;5012259;28;20481;-84
2021/05/04 11:44:23;;;;;;;8.75;3.60;;;24.50;57.10;;;;;;5030903;28;20021;-84
2021/05/04 11:46:49;;;;;;;5.82;3.00;;;24.90;56.80;;;;;;5029241;28;20052;-84
2021/05/04 11:52:25;;;;;;;5.68;3.22;;;24.80;55.40;;;;;;5062015;28;20089;-83
2021/05/04 11:57:29;;;;;;;7.30;3.45;;;24.90;56.10;;;;;;5277803;22;20037;-85
2021/05/04 11:59:57;;;;;;;8.73;3.78;;;25.00;55.60;;;;;;5055602;28;20020;-86
2021/05/04 12:02:45;;;;;;;7.18;3.20;;;24.90;56.70;;;;;;5059262;28;20023;-85
2021/05/04 12:07:39;;;;;;;7.53;2.97;;;25.80;55.70;;;;;;5053626;23;20068;-85
2021/05/04 12:10:40;;;;;;;5.18;3.22;;;25.90;54.50;;;;;;5058972;28;20017;-85
2021/05/04 12:13:12;;;;;;;8.38;3.30;;;25.50;55.20;;;;;;5038139;28;20044;-86
2021/05/04 12:15:45;;;;;;;5.07;2.90;;;25.10;54.60;;;;;;5048288;28;20013;-88
2021/05/04 12:18:35;;;;;;;6.65;3.20;;;25.30;55.20;;;;;;5050085;28;20403;-87
2021/05/04 12:21:03;;;;;;;6.95;2.70;;;25.10;55.00;;;;;;5118615;23;20041;-83
2021/05/04 12:23:36;;;;;;;6.32;3.38;;;26.10;54.70;;;;;;5059558;28;20021;-84
2021/05/04 12:26:29;;;;;;;7.88;3.30;;;26.20;54.80;;;;;;5042444;28;20016;-83
2021/05/04 12:28:59;;;;;;;7.88;3.80;;;25.90;54.40;;;;;;5031649;28;20029;-84
2021/05/04 12:31:32;;;;;;;;;;;25.90;54.00;;;;;;5040564;28;20480;-83
2021/05/04 12:34:10;;;;;;;4.90;2.78;;;25.70;54.30;;;;;;5040626;28;19916;-88
2021/05/04 12:36:58;;;;;;;5.40;2.92;;;25.60;54.20;;;;;;5043004;28;20032;-82
2021/05/04 12:46:19;;;;;;;7.43;3.00;;;25.90;54.40;;;;;;4995742;28;20104;-88
2021/05/04 12:58:48;;;;;;;5.18;2.92;;;26.30;51.50;;;;;;5437176;23;20057;-91
2021/05/04 13:01:14;;;;;;;8.15;2.78;;;26.10;52.70;;;;;;4954064;28;20415;-89
2021/05/04 13:04:20;;;;;;;;;;;;;;;;;;;;;
2021/05/04 13:07:13;;;;;;;5.35;2.83;;;25.60;53.80;;;;;;5020188;28;20026;-83
2021/05/04 13:09:56;;;;;;;6.13;3.05;;;26.00;54.10;;;;;;5004140;28;20500;-84
2021/05/04 13:12:40;;;;;;;7.38;3.08;;;26.60;53.40;;;;;;5020921;28;20025;-85
2021/05/04 13:21:18;;;;;;;4.80;2.42;;;26.30;52.30;;;;;;5029960;28;20175;-88
2021/05/04 13:30:00;;;;;;;8.13;3.10;;;26.10;52.50;;;;;;5051600;28;20040;-86
2021/05/04 13:35:08;;;;;;;5.28;3.05;;;26.00;52.60;;;;;;5598257;22;20412;-87
2021/05/04 13:49:31;;;;;;;6.55;2.92;;;25.20;54.20;;;;;;5060484;28;20039;-85
2021/05/04 13:52:18;;;;;;;7.85;2.90;;;25.60;53.80;;;;;;5054648;28;20368;-87
2021/05/04 13:54:44;;;;;;;7.45;3.13;;;26.20;52.90;;;;;;5053404;28;20429;-84
2021/05/04 13:57:16;;;;;;;5.18;2.78;;;26.30;53.00;;;;;;5050748;28;20444;-85
2021/05/04 14:30:13;;;;;;;5.53;3.00;;;25.90;52.50;;;;;;4961184;28;20033;-87
2021/05/04 14:36:22;;;;;;;9.18;3.70;;;26.80;52.50;;;;;;5017687;28;20032;-85
2021/05/04 14:55:39;;;;;;;6.25;2.60;;;25.60;53.40;;;;;;5598357;22;20045;-89
2021/05/04 15:13:32;;;;;;;7.78;3.10;;;24.70;55.10;;;;;;5059106;28;20035;-87
2021/05/04 15:22:09;;;;;;;6.50;3.05;;;24.40;55.30;;;;;;5051565;28;20029;-94
2021/05/04 15:31:38;;;;;;;11.07;7.65;;;24.30;55.80;;;;;;5011949;28;20061;-90
2021/05/04 15:34:11;;;;;;;7.32;3.88;;;24.10;56.50;;;;;;4991693;28;20038;-90
2021/05/04 15:36:37;;;;;;;8.63;3.30;;;24.10;56.90;;;;;;4985106;28;20041;-82
2021/05/04 15:39:09;;;;;;;6.63;2.95;;;24.10;56.90;;;;;;4993265;28;20018;-83
2021/05/04 15:41:37;;;;;;;8.35;3.35;;;24.20;56.70;;;;;;4973993;28;20037;-86